createdAt,value
2022-10-22T00:00:08.522Z,66.68
2022-10-22T00:02:36.405Z,66.57
2022-10-22T00:05:04.777Z,67.02
2022-10-22T00:07:33.826Z,66.57
2022-10-22T00:10:01.781Z,66.60
2022-10-22T00:12:29.471Z,65.98
2022-10-22T00:14:58.423Z,66.25
2022-10-22T00:17:25.870Z,65.66
2022-10-22T00:19:53.159Z,65.84
2022-10-22T00:22:20.869Z,65.71
2022-10-22T00:24:48.455Z,65.18
2022-10-22T00:27:16.149Z,64.81
2022-10-22T00:29:44.385Z,64.08
2022-10-22T00:32:12.747Z,64.61
2022-10-22T00:34:40.511Z,64.87
2022-10-22T00:37:08.357Z,63.61
2022-10-22T00:39:36.266Z,64.11
2022-10-22T00:42:04.136Z,63.17
2022-10-22T00:45:16.491Z,62.88
2022-10-22T00:47:44.240Z,62.60
2022-10-22T00:50:16.480Z,62.29
2022-10-22T00:52:45.449Z,64.13
2022-10-22T00:55:15.081Z,65.43
2022-10-22T00:57:43.560Z,64.94
2022-10-22T01:00:12.552Z,59.99
2022-10-22T01:02:40.460Z,62.54
2022-10-22T01:05:08.747Z,58.66
2022-10-22T01:07:52.445Z,60.47
2022-10-22T01:10:23.067Z,59.34
2022-10-22T01:13:13.871Z,58.39
2022-10-22T01:15:52.952Z,58.01
2022-10-22T01:18:48.804Z,58.26
2022-10-22T01:21:37.936Z,58.13
2022-10-22T01:24:21.295Z,57.23
2022-10-22T01:27:27.674Z,57.80
2022-10-22T01:30:08.700Z,56.10
2022-10-22T01:32:46.170Z,57.44
2022-10-22T01:35:20.259Z,57.97
2022-10-22T01:37:53.729Z,56.31
2022-10-22T01:40:32.046Z,57.60
2022-10-22T01:43:09.812Z,57.21
2022-10-22T01:45:59.772Z,56.68
2022-10-22T01:49:06.206Z,54.90
2022-10-22T01:51:40.312Z,56.58
2022-10-22T01:54:35.673Z,56.66
2022-10-22T01:57:36.318Z,55.55
2022-10-22T02:00:12.225Z,55.77
2022-10-22T02:02:44.881Z,56.40
2022-10-22T02:05:23.894Z,56.44
2022-10-22T02:07:58.278Z,55.67
2022-10-22T02:10:27.651Z,55.39
2022-10-22T02:13:01.784Z,55.36
2022-10-22T02:15:33.876Z,55.59
2022-10-22T02:18:03.766Z,54.65
2022-10-22T02:20:36.330Z,54.80
2022-10-22T02:23:05.462Z,55.18
2022-10-22T02:25:36.600Z,55.54
2022-10-22T02:28:16.856Z,55.16
2022-10-22T02:30:50.542Z,55.29
2022-10-22T02:33:33.170Z,55.47
2022-10-22T02:36:03.434Z,56.23
2022-10-22T02:38:33.520Z,55.66
2022-10-22T02:41:02.095Z,56.96
2022-10-22T02:43:30.991Z,56.96
2022-10-22T02:45:58.959Z,55.73
2022-10-22T02:48:27.477Z,56.51
2022-10-22T02:50:55.894Z,55.41
2022-10-22T02:53:24.047Z,55.71
2022-10-22T02:55:52.160Z,55.96
2022-10-22T02:58:20.181Z,55.75
2022-10-22T03:00:49.995Z,54.80
2022-10-22T03:03:18.372Z,54.54
2022-10-22T03:05:52.754Z,55.17
2022-10-22T03:08:21.376Z,55.35
2022-10-22T03:10:49.725Z,55.32
2022-10-22T03:13:18.412Z,54.99
2022-10-22T03:15:46.559Z,54.94
2022-10-22T03:18:14.961Z,54.74
2022-10-22T03:20:43.262Z,55.25
2022-10-22T03:23:14.980Z,55.76
2022-10-22T03:25:45.417Z,55.25
2022-10-22T03:28:16.700Z,55.08
2022-10-22T03:30:45.231Z,55.32
2022-10-22T03:33:13.699Z,55.67
2022-10-22T03:35:47.925Z,55.95
2022-10-22T03:38:16.529Z,56.17
2022-10-22T03:40:46.380Z,56.40
2022-10-22T03:43:22.927Z,56.25
2022-10-22T03:45:50.981Z,56.16
2022-10-22T03:48:19.208Z,56.53
2022-10-22T03:50:47.216Z,56.19
2022-10-22T03:53:15.468Z,56.63
2022-10-22T03:55:43.771Z,56.41
2022-10-22T03:58:12.486Z,56.64
2022-10-22T04:00:41.651Z,56.08
2022-10-22T04:03:09.956Z,56.39
2022-10-22T04:05:38.144Z,56.53
2022-10-22T04:08:05.978Z,55.99
2022-10-22T04:10:34.884Z,56.10
2022-10-22T04:13:03.602Z,56.82
2022-10-22T04:15:31.256Z,56.78
2022-10-22T04:17:59.032Z,56.67
2022-10-22T04:20:26.483Z,56.16
2022-10-22T04:22:54.069Z,56.73
2022-10-22T04:25:21.447Z,56.83
2022-10-22T04:27:49.033Z,57.14
2022-10-22T04:30:16.691Z,57.00
2022-10-22T04:32:44.158Z,56.86
2022-10-22T04:35:12.087Z,56.93
2022-10-22T04:37:40.158Z,56.75
2022-10-22T04:40:09.569Z,57.05
2022-10-22T04:42:37.080Z,57.55
2022-10-22T04:45:05.545Z,57.15
2022-10-22T04:47:33.732Z,56.61
2022-10-22T04:50:01.416Z,57.07
2022-10-22T04:52:29.472Z,56.28
2022-10-22T04:54:57.212Z,56.32
2022-10-22T04:57:25.139Z,56.68
2022-10-22T04:59:54.606Z,56.90
2022-10-22T05:02:22.785Z,56.82
2022-10-22T05:04:50.418Z,57.11
2022-10-22T05:07:18.491Z,56.57
2022-10-22T05:09:46.256Z,56.39
2022-10-22T05:12:13.919Z,56.57
2022-10-22T05:14:44.944Z,56.56
2022-10-22T05:17:13.379Z,56.83
2022-10-22T05:19:41.919Z,56.33
2022-10-22T05:22:11.493Z,56.52
2022-10-22T05:24:40.644Z,56.64
2022-10-22T05:27:09.050Z,57.05
2022-10-22T05:29:37.534Z,56.16
2022-10-22T05:32:05.780Z,56.42
2022-10-22T05:34:33.939Z,55.79
2022-10-22T05:37:01.807Z,56.33
2022-10-22T05:39:30.331Z,56.47
2022-10-22T05:41:59.174Z,56.36
2022-10-22T05:44:27.452Z,56.46
2022-10-22T05:46:55.549Z,56.09
2022-10-22T05:49:23.324Z,56.68
2022-10-22T05:51:52.521Z,56.91
2022-10-22T05:54:22.931Z,57.11
2022-10-22T05:56:50.337Z,56.78
2022-10-22T05:59:18.240Z,56.83
2022-10-22T06:01:46.267Z,61.28
2022-10-22T06:04:16.652Z,60.08
2022-10-22T06:06:48.346Z,57.05
2022-10-22T06:09:27.997Z,57.71
2022-10-22T06:11:57.190Z,57.66
2022-10-22T06:14:25.892Z,56.35
2022-10-22T06:16:53.739Z,56.23
2022-10-22T06:19:23.439Z,55.90
2022-10-22T06:21:51.259Z,56.43
2022-10-22T06:24:18.919Z,56.15
2022-10-22T06:26:50.962Z,55.64
2022-10-22T06:29:18.726Z,55.96
2022-10-22T06:31:46.514Z,55.27
2022-10-22T06:34:15.509Z,55.78
2022-10-22T06:36:45.314Z,55.41
2022-10-22T06:39:14.891Z,54.52
2022-10-22T06:41:44.958Z,54.56
2022-10-22T06:44:16.670Z,54.43
2022-10-22T06:46:45.792Z,54.58
2022-10-22T06:49:15.375Z,54.74
2022-10-22T06:51:43.567Z,54.33
2022-10-22T06:54:12.837Z,54.62
2022-10-22T06:56:42.564Z,54.50
2022-10-22T06:59:10.822Z,55.88
2022-10-22T07:01:39.425Z,55.54
2022-10-22T07:04:11.588Z,55.92
2022-10-22T07:06:40.149Z,55.31
2022-10-22T07:09:08.739Z,55.42
2022-10-22T07:11:45.954Z,55.29
2022-10-22T07:14:14.877Z,55.31
2022-10-22T07:16:43.615Z,55.36
2022-10-22T07:19:12.206Z,55.80
2022-10-22T07:21:41.395Z,56.17
2022-10-22T07:24:09.382Z,55.69
2022-10-22T07:26:37.469Z,55.19
2022-10-22T07:29:06.013Z,54.35
2022-10-22T07:31:33.819Z,54.72
2022-10-22T07:34:09.178Z,54.82
2022-10-22T07:36:37.340Z,54.18
2022-10-22T07:39:08.432Z,54.03
2022-10-22T07:41:36.656Z,54.99
2022-10-22T07:44:04.478Z,54.71
2022-10-22T07:46:32.155Z,54.04
2022-10-22T07:48:59.850Z,54.29
2022-10-22T07:51:28.297Z,53.60
2022-10-22T07:53:57.406Z,53.95
2022-10-22T07:56:25.237Z,53.71
2022-10-22T07:58:53.071Z,52.98
2022-10-22T08:01:20.743Z,52.88
2022-10-22T08:04:30.646Z,52.81
2022-10-22T08:07:01.803Z,53.11
2022-10-22T08:09:39.557Z,52.92
2022-10-22T08:12:12.359Z,52.68
2022-10-22T08:14:46.743Z,52.25
2022-10-22T08:17:14.797Z,52.91
2022-10-22T08:19:47.936Z,52.48
2022-10-22T08:22:16.197Z,52.72
2022-10-22T08:24:44.089Z,51.46
2022-10-22T08:27:16.990Z,51.26
2022-10-22T08:29:45.646Z,51.58
2022-10-22T08:32:13.363Z,52.37
2022-10-22T08:34:41.922Z,51.70
2022-10-22T08:37:14.692Z,51.76
2022-10-22T08:39:42.209Z,51.84
2022-10-22T08:42:13.460Z,51.73
2022-10-22T08:45:08.455Z,51.72
2022-10-22T08:47:59.588Z,51.12
2022-10-22T08:50:52.840Z,51.20
2022-10-22T08:53:26.950Z,50.63
2022-10-22T08:55:55.120Z,49.93
2022-10-22T08:58:37.039Z,50.08
2022-10-22T09:01:15.708Z,49.70
2022-10-22T09:04:13.504Z,49.23
2022-10-22T09:06:52.153Z,50.01
2022-10-22T09:09:28.197Z,49.42
2022-10-22T09:11:59.715Z,49.11
2022-10-22T09:14:27.643Z,48.53
2022-10-22T09:17:16.489Z,48.88
2022-10-22T09:19:57.538Z,49.16
2022-10-22T09:22:55.602Z,47.57
2022-10-22T09:25:26.164Z,48.13
2022-10-22T09:27:58.766Z,48.59
2022-10-22T09:30:33.872Z,48.18
2022-10-22T09:33:07.014Z,46.54
2022-10-22T09:35:44.573Z,47.69
2022-10-22T09:38:14.919Z,48.13
2022-10-22T09:40:52.904Z,48.36
2022-10-22T09:43:21.010Z,48.26
2022-10-22T09:45:50.094Z,48.55
2022-10-22T09:48:34.713Z,49.37
2022-10-22T09:51:25.822Z,49.66
2022-10-22T09:54:02.438Z,49.82
2022-10-22T09:56:59.822Z,47.98
2022-10-22T09:59:41.649Z,48.37
2022-10-22T10:02:37.073Z,47.70
2022-10-22T10:05:06.794Z,48.34
2022-10-22T10:07:36.414Z,45.68
2022-10-22T10:10:21.937Z,46.27
2022-10-22T10:13:01.719Z,45.47
2022-10-22T10:15:51.983Z,45.86
2022-10-22T10:18:31.028Z,45.27
2022-10-22T10:21:01.134Z,45.09
2022-10-22T10:23:44.694Z,45.43
2022-10-22T10:26:53.143Z,46.11
2022-10-22T10:29:32.411Z,44.70
2022-10-22T10:32:23.713Z,44.13
2022-10-22T10:35:11.454Z,45.31
2022-10-22T10:38:29.617Z,44.04
2022-10-22T10:41:06.178Z,45.90
2022-10-22T10:43:39.268Z,44.41
2022-10-22T10:46:13.363Z,45.04
2022-10-22T10:49:01.639Z,44.82
2022-10-22T10:51:47.188Z,45.76
2022-10-22T10:54:33.696Z,42.50
2022-10-22T10:58:00.183Z,42.40
2022-10-22T11:00:32.974Z,43.94
2022-10-22T11:03:37.782Z,42.50
2022-10-22T11:06:12.599Z,43.79
2022-10-22T11:09:06.057Z,43.21
2022-10-22T11:11:51.969Z,45.16
2022-10-22T11:14:30.171Z,43.18
2022-10-22T11:17:01.939Z,41.34
2022-10-22T11:19:57.855Z,41.00
2022-10-22T11:23:06.718Z,41.73
2022-10-22T11:25:39.991Z,41.15
2022-10-22T11:28:22.627Z,40.45
2022-10-22T11:30:57.925Z,40.11
2022-10-22T11:33:34.267Z,40.02
2022-10-22T11:36:07.517Z,39.33
2022-10-22T11:38:36.652Z,39.37
2022-10-22T11:41:13.143Z,39.12
2022-10-22T11:44:07.757Z,39.68
2022-10-22T11:46:58.052Z,39.28
2022-10-22T11:49:44.317Z,39.48
2022-10-22T11:52:53.002Z,39.60
2022-10-22T11:55:51.726Z,40.92
2022-10-22T11:58:39.524Z,40.59
2022-10-22T12:01:09.529Z,39.36
2022-10-22T12:04:14.143Z,39.81
2022-10-22T12:07:01.817Z,40.85
2022-10-22T12:09:33.108Z,40.92
2022-10-22T12:12:13.853Z,40.85
2022-10-22T12:15:01.237Z,40.88
2022-10-22T12:17:29.566Z,41.25
2022-10-22T12:20:02.646Z,41.15
2022-10-22T12:22:37.832Z,38.66
2022-10-22T12:25:24.239Z,40.61
2022-10-22T12:27:55.176Z,41.48
2022-10-22T12:30:35.201Z,42.03
2022-10-22T12:33:11.489Z,41.90
2022-10-22T12:35:52.434Z,41.83
2022-10-22T12:38:24.681Z,42.15
2022-10-22T12:40:55.059Z,40.95
2022-10-22T12:43:28.476Z,41.96
2022-10-22T12:45:58.256Z,41.77
2022-10-22T12:48:29.953Z,40.08
2022-10-22T12:51:01.949Z,41.49
2022-10-22T12:53:38.489Z,41.85
2022-10-22T12:56:12.858Z,42.23
2022-10-22T12:59:08.208Z,41.84
2022-10-22T13:01:44.875Z,41.94
2022-10-22T13:04:37.429Z,41.60
2022-10-22T13:07:21.948Z,40.98
2022-10-22T13:10:00.795Z,41.07
2022-10-22T13:12:36.709Z,41.21
2022-10-22T13:15:42.715Z,40.69
2022-10-22T13:18:18.978Z,40.96
2022-10-22T13:20:59.189Z,41.08
2022-10-22T13:23:35.595Z,40.58
2022-10-22T13:26:18.531Z,40.75
2022-10-22T13:28:57.661Z,40.44
2022-10-22T13:31:34.250Z,40.79
2022-10-22T13:34:18.586Z,40.12
2022-10-22T13:36:51.743Z,40.34
2022-10-22T13:39:22.666Z,39.76
2022-10-22T13:41:51.515Z,39.82
2022-10-22T13:44:24.680Z,39.40
2022-10-22T13:46:58.414Z,40.35
2022-10-22T13:49:26.367Z,41.34
2022-10-22T13:51:54.094Z,41.88
2022-10-22T13:54:29.538Z,42.40
2022-10-22T13:56:57.126Z,41.88
2022-10-22T13:59:24.527Z,41.75
2022-10-22T14:01:52.939Z,42.15
2022-10-22T14:04:23.498Z,41.35
2022-10-22T14:06:51.155Z,41.00
2022-10-22T14:09:22.911Z,41.08
2022-10-22T14:11:50.352Z,41.97
2022-10-22T14:14:19.089Z,41.96
2022-10-22T14:16:46.913Z,41.75
2022-10-22T14:19:18.823Z,42.01
2022-10-22T14:21:46.339Z,41.05
2022-10-22T14:24:17.355Z,41.81
2022-10-22T14:26:45.285Z,41.01
2022-10-22T14:29:15.747Z,40.78
2022-10-22T14:31:45.023Z,40.92
2022-10-22T14:34:16.124Z,40.02
2022-10-22T14:36:44.613Z,40.03
2022-10-22T14:39:13.200Z,40.92
2022-10-22T14:41:41.476Z,40.50
2022-10-22T14:44:14.589Z,41.63
2022-10-22T14:46:44.428Z,39.55
2022-10-22T14:49:12.784Z,41.00
2022-10-22T14:51:40.344Z,41.52
2022-10-22T14:54:07.925Z,41.67
2022-10-22T14:59:02.947Z,43.03
2022-10-22T15:01:30.354Z,43.35
2022-10-22T15:03:57.672Z,43.17
2022-10-22T15:06:24.886Z,43.34
2022-10-22T15:08:52.435Z,43.59
2022-10-22T15:11:20.060Z,44.54
2022-10-22T15:13:47.438Z,44.93
2022-10-22T15:16:16.946Z,45.17
2022-10-22T15:18:44.921Z,45.14
2022-10-22T15:21:21.507Z,45.17
2022-10-22T15:23:50.072Z,44.73
2022-10-22T15:26:18.025Z,45.34
2022-10-22T15:28:45.326Z,45.74
2022-10-22T15:31:48.677Z,45.63
2022-10-22T15:34:28.506Z,46.30
2022-10-22T15:37:07.923Z,46.62
2022-10-22T15:39:40.978Z,46.91
2022-10-22T15:42:10.580Z,47.32
2022-10-22T15:44:40.493Z,47.55
2022-10-22T15:47:08.646Z,47.67
2022-10-22T15:49:38.819Z,48.02
2022-10-22T15:52:09.401Z,48.04
2022-10-22T15:54:37.407Z,48.42
2022-10-22T15:57:11.520Z,48.94
2022-10-22T15:59:39.181Z,49.12
2022-10-22T16:02:07.765Z,49.07
2022-10-22T16:04:42.673Z,50.08
2022-10-22T16:07:14.696Z,50.47
2022-10-22T16:09:45.032Z,50.94
2022-10-22T16:12:15.361Z,50.71
2022-10-22T16:14:52.050Z,50.62
2022-10-22T16:17:19.396Z,50.83
2022-10-22T16:19:49.172Z,51.44
2022-10-22T16:22:17.764Z,51.48
2022-10-22T16:24:45.192Z,51.38
2022-10-22T16:27:13.851Z,51.51
2022-10-22T16:29:42.358Z,52.69
2022-10-22T16:32:10.017Z,53.74
2022-10-22T16:34:38.671Z,54.34
2022-10-22T16:37:10.590Z,54.60
2022-10-22T16:39:38.115Z,54.79
2022-10-22T16:42:06.198Z,54.70
2022-10-22T16:44:33.669Z,55.46
2022-10-22T16:47:01.440Z,55.28
2022-10-22T16:49:29.397Z,55.73
2022-10-22T16:51:58.032Z,56.21
2022-10-22T16:54:26.082Z,56.38
2022-10-22T16:56:53.379Z,56.65
2022-10-22T16:59:21.699Z,56.68
2022-10-22T17:01:49.039Z,56.59
2022-10-22T17:04:19.011Z,56.68
2022-10-22T17:06:46.904Z,56.71
2022-10-22T17:09:21.327Z,57.06
2022-10-22T17:12:00.797Z,57.23
2022-10-22T17:14:28.411Z,57.16
2022-10-22T17:16:55.775Z,57.37
2022-10-22T17:19:24.117Z,57.53
2022-10-22T17:21:53.762Z,57.46
2022-10-22T17:24:21.420Z,57.53
2022-10-22T17:26:48.719Z,57.75
2022-10-22T17:29:16.120Z,57.49
2022-10-22T17:31:43.300Z,57.29
2022-10-22T17:34:16.274Z,57.86
2022-10-22T17:36:44.258Z,57.46
2022-10-22T17:39:16.026Z,57.63
2022-10-22T17:41:43.156Z,58.07
2022-10-22T17:44:17.629Z,57.71
2022-10-22T17:46:45.539Z,57.53
2022-10-22T17:49:17.603Z,56.97
2022-10-22T17:51:45.642Z,57.13
2022-10-22T17:54:14.377Z,56.86
2022-10-22T17:56:41.839Z,56.83
2022-10-22T17:59:13.799Z,57.06
2022-10-22T18:01:46.044Z,56.93
2022-10-22T18:04:20.892Z,57.14
2022-10-22T18:06:48.782Z,57.02
2022-10-22T18:09:24.102Z,57.28
2022-10-22T18:11:54.931Z,56.79
2022-10-22T18:14:24.225Z,56.77
2022-10-22T18:16:53.147Z,57.02
2022-10-22T18:19:32.177Z,57.11
2022-10-22T18:22:00.946Z,56.87
2022-10-22T18:24:32.399Z,56.88
2022-10-22T18:27:06.421Z,56.42
2022-10-22T18:29:37.865Z,56.88
2022-10-22T18:32:12.110Z,56.87
2022-10-22T18:34:44.947Z,56.86
2022-10-22T18:37:14.386Z,56.98
2022-10-22T18:39:42.457Z,56.89
2022-10-22T18:42:10.025Z,56.99
2022-10-22T18:44:40.782Z,57.09
2022-10-22T18:47:09.895Z,57.55
2022-10-22T18:49:37.660Z,57.06
2022-10-22T18:52:05.274Z,57.84
2022-10-22T18:54:33.156Z,57.86
2022-10-22T18:57:03.123Z,57.51
2022-10-22T18:59:31.930Z,57.53
2022-10-22T19:02:00.128Z,57.42
2022-10-22T19:04:33.525Z,57.35
2022-10-22T19:07:01.476Z,57.39
2022-10-22T19:09:29.839Z,57.60
2022-10-22T19:11:57.870Z,57.34
2022-10-22T19:14:26.699Z,57.23
2022-10-22T19:16:54.899Z,57.37
2022-10-22T19:19:23.381Z,56.89
2022-10-22T19:21:51.110Z,56.94
2022-10-22T19:24:20.357Z,57.21
2022-10-22T19:26:49.247Z,56.84
2022-10-22T19:29:18.637Z,56.74
2022-10-22T19:31:46.634Z,57.39
2022-10-22T19:34:19.857Z,57.73
2022-10-22T19:36:47.347Z,57.47
2022-10-22T19:39:18.696Z,57.79
2022-10-22T19:41:46.415Z,56.21
2022-10-22T19:44:15.365Z,54.95
2022-10-22T19:46:42.664Z,54.54
2022-10-22T19:49:11.746Z,55.22
2022-10-22T19:51:40.351Z,56.37
2022-10-22T19:54:11.873Z,55.59
2022-10-22T19:56:39.816Z,55.36
2022-10-22T19:59:07.206Z,55.52
2022-10-22T20:01:34.975Z,55.23
2022-10-22T20:04:02.606Z,55.60
2022-10-22T20:06:31.771Z,55.60
2022-10-22T20:08:59.301Z,54.88
2022-10-22T20:11:29.615Z,54.82
2022-10-22T20:13:58.354Z,54.04
2022-10-22T20:16:31.405Z,54.98
2022-10-22T20:19:04.024Z,54.91
2022-10-22T20:21:32.403Z,54.72
2022-10-22T20:24:00.265Z,55.27
2022-10-22T20:26:29.232Z,54.82
2022-10-22T20:28:57.769Z,54.96
2022-10-22T20:31:28.109Z,56.67
2022-10-22T20:34:04.531Z,55.20
2022-10-22T20:36:32.481Z,55.88
2022-10-22T20:39:09.444Z,56.53
2022-10-22T20:41:39.726Z,57.03
2022-10-22T20:44:11.749Z,55.11
2022-10-22T20:46:39.168Z,54.83
2022-10-22T20:49:13.710Z,54.60
2022-10-22T20:51:41.703Z,55.99
2022-10-22T20:54:10.421Z,54.62
2022-10-22T20:56:41.080Z,55.16
2022-10-22T20:59:11.557Z,55.32
2022-10-22T21:01:46.157Z,55.41
2022-10-22T21:04:15.094Z,54.29
2022-10-22T21:06:43.357Z,54.47
2022-10-22T21:09:14.365Z,54.78
2022-10-22T21:11:44.290Z,54.89
2022-10-22T21:14:14.255Z,55.31
2022-10-22T21:16:56.506Z,55.22
2022-10-22T21:19:25.133Z,55.51
2022-10-22T21:21:55.737Z,55.39
2022-10-22T21:24:25.294Z,55.61
2022-10-22T21:26:55.399Z,55.23
2022-10-22T21:29:23.615Z,55.54
2022-10-22T21:31:52.313Z,55.78
2022-10-22T21:34:24.244Z,55.83
2022-10-22T21:36:53.946Z,56.07
2022-10-22T21:39:41.110Z,55.60
2022-10-22T21:42:19.147Z,55.68
2022-10-22T21:45:13.636Z,56.23
2022-10-22T21:47:45.052Z,55.34
2022-10-22T21:50:13.905Z,55.93
2022-10-22T21:52:42.935Z,55.45
2022-10-22T21:55:13.024Z,55.80
2022-10-22T21:57:41.286Z,55.58
2022-10-22T22:00:14.671Z,55.71
2022-10-22T22:02:49.478Z,55.75
2022-10-22T22:05:18.317Z,55.76
2022-10-22T22:07:48.170Z,55.41
2022-10-22T22:10:16.562Z,56.03
2022-10-22T22:12:45.705Z,55.93
2022-10-22T22:15:14.173Z,55.34
2022-10-22T22:17:45.955Z,55.58
2022-10-22T22:20:13.532Z,55.72
2022-10-22T22:22:41.110Z,55.77
2022-10-22T22:25:09.163Z,56.02
2022-10-22T22:27:42.394Z,55.77
2022-10-22T22:30:10.935Z,56.07
2022-10-22T22:32:38.294Z,55.81
2022-10-22T22:35:06.622Z,55.79
2022-10-22T22:37:35.827Z,55.87
2022-10-22T22:40:03.831Z,55.93
2022-10-22T22:42:31.590Z,55.91
2022-10-22T22:44:59.232Z,55.83
2022-10-22T22:47:26.887Z,55.82
2022-10-22T22:49:54.497Z,55.75
2022-10-22T22:52:22.110Z,55.55
2022-10-22T22:54:49.664Z,55.87
2022-10-22T22:57:17.165Z,55.46
2022-10-22T22:59:44.718Z,55.66
2022-10-22T23:02:12.716Z,55.33
2022-10-22T23:04:40.373Z,55.55
2022-10-22T23:07:12.136Z,55.50
2022-10-22T23:09:39.996Z,55.62
2022-10-22T23:12:08.143Z,55.16
2022-10-22T23:14:35.653Z,55.32
2022-10-22T23:17:04.867Z,55.23
2022-10-22T23:19:33.759Z,55.63
2022-10-22T23:22:01.669Z,55.13
2022-10-22T23:24:30.775Z,55.58
2022-10-22T23:27:02.207Z,55.62
2022-10-22T23:29:34.477Z,55.52
2022-10-22T23:32:06.205Z,55.32
2022-10-22T23:34:34.219Z,55.64
2022-10-22T23:37:02.287Z,55.65
2022-10-22T23:39:30.660Z,55.42
2022-10-22T23:41:59.259Z,55.64
2022-10-22T23:44:27.126Z,55.88
2022-10-22T23:46:55.712Z,55.56
2022-10-22T23:49:24.023Z,56.26
2022-10-22T23:51:51.659Z,56.36
2022-10-22T23:54:19.496Z,56.37
2022-10-22T23:56:53.723Z,55.77
2022-10-22T23:59:21.610Z,56.09
